sensor_id;sensor_type;location;lat;lon;timestamp;pressure;altitude;pressure_sealevel;temperature
75273;BMP280;63869;52.344;16.928;2023-04-01T00:00:59;98829.94;;;11.29
75273;BMP280;63869;52.344;16.928;2023-04-01T00:03:26;98829.94;;;11.29
75273;BMP280;63869;52.344;16.928;2023-04-01T00:05:53;98826.06;;;11.30
75273;BMP280;63869;52.344;16.928;2023-04-01T00:08:18;98836.03;;;11.30
75273;BMP280;63869;52.344;16.928;2023-04-01T00:10:44;98825.31;;;11.30
75273;BMP280;63869;52.344;16.928;2023-04-01T00:13:10;98830.50;;;11.33
75273;BMP280;63869;52.344;16.928;2023-04-01T00:15:35;98822.19;;;11.31
75273;BMP280;63869;52.344;16.928;2023-04-01T00:18:01;98820.97;;;11.32
75273;BMP280;63869;52.344;16.928;2023-04-01T00:20:28;98820.97;;;11.32
75273;BMP280;63869;52.344;16.928;2023-04-01T00:22:53;98819.78;;;11.33
75273;BMP280;63869;52.344;16.928;2023-04-01T00:25:18;98817.84;;;11.34
75273;BMP280;63869;52.344;16.928;2023-04-01T00:27:44;98815.91;;;11.34
75273;BMP280;63869;52.344;16.928;2023-04-01T00:30:10;98816.84;;;11.31
75273;BMP280;63869;52.344;16.928;2023-04-01T00:32:37;98823.19;;;11.34
75273;BMP280;63869;52.344;16.928;2023-04-01T00:35:03;98820.53;;;11.34
75273;BMP280;63869;52.344;16.928;2023-04-01T00:37:29;98819.78;;;11.33
75273;BMP280;63869;52.344;16.928;2023-04-01T00:39:55;98812.94;;;11.32
75273;BMP280;63869;52.344;16.928;2023-04-01T00:42:21;98819.78;;;11.33
75273;BMP280;63869;52.344;16.928;2023-04-01T00:44:53;98818.59;;;11.34
75273;BMP280;63869;52.344;16.928;2023-04-01T00:47:19;98812.25;;;11.32
75273;BMP280;63869;52.344;16.928;2023-04-01T00:49:46;98816.69;;;11.35
75273;BMP280;63869;52.344;16.928;2023-04-01T00:52:15;98811.63;;;11.37
75273;BMP280;63869;52.344;16.928;2023-04-01T00:54:46;98807.16;;;11.34
75273;BMP280;63869;52.344;16.928;2023-04-01T00:57:21;98806.00;;;11.35
75273;BMP280;63869;52.344;16.928;2023-04-01T00:59:50;98806.72;;;11.35
75273;BMP280;63869;52.344;16.928;2023-04-01T01:02:18;98808.22;;;11.36
75273;BMP280;63869;52.344;16.928;2023-04-01T01:04:44;98797.50;;;11.36
75273;BMP280;63869;52.344;16.928;2023-04-01T01:10:34;98804.06;;;11.35
75273;BMP280;63869;52.344;16.928;2023-04-01T01:13:11;98807.91;;;11.34
75273;BMP280;63869;52.344;16.928;2023-04-01T01:18:50;98799.13;;;11.34
75273;BMP280;63869;52.344;16.928;2023-04-01T01:34:54;98794.41;;;11.29
75273;BMP280;63869;52.344;16.928;2023-04-01T01:37:24;98795.16;;;11.29
75273;BMP280;63869;52.344;16.928;2023-04-01T01:40:00;98801.69;;;11.28
75273;BMP280;63869;52.344;16.928;2023-04-01T01:42:29;98803.63;;;11.28
75273;BMP280;63869;52.344;16.928;2023-04-01T01:44:58;98808.53;;;11.29
75273;BMP280;63869;52.344;16.928;2023-04-01T01:47:25;98805.56;;;11.27
75273;BMP280;63869;52.344;16.928;2023-04-01T01:49:53;98809.44;;;11.26
75273;BMP280;63869;52.344;16.928;2023-04-01T01:52:19;98804.09;;;11.26
75273;BMP280;63869;52.344;16.928;2023-04-01T01:54:53;98799.38;;;11.21
75273;BMP280;63869;52.344;16.928;2023-04-01T01:57:26;98800.41;;;11.24
75273;BMP280;63869;52.344;16.928;2023-04-01T01:59:56;98797.72;;;11.24
75273;BMP280;63869;52.344;16.928;2023-04-01T02:02:25;98801.59;;;11.23
75273;BMP280;63869;52.344;16.928;2023-04-01T02:04:51;98803.81;;;11.24
75273;BMP280;63869;52.344;16.928;2023-04-01T02:07:24;98806.50;;;11.24
75273;BMP280;63869;52.344;16.928;2023-04-01T02:09:51;98796.25;;;11.23
75273;BMP280;63869;52.344;16.928;2023-04-01T02:12:17;98791.34;;;11.21
75273;BMP280;63869;52.344;16.928;2023-04-01T02:17:18;98787.47;;;11.22
75273;BMP280;63869;52.344;16.928;2023-04-01T02:19:51;98794.78;;;11.22
75273;BMP280;63869;52.344;16.928;2023-04-01T02:22:21;98795.97;;;11.21
75273;BMP280;63869;52.344;16.928;2023-04-01T02:24:49;98784.53;;;11.20
75273;BMP280;63869;52.344;16.928;2023-04-01T02:27:15;98795.22;;;11.20
75273;BMP280;63869;52.344;16.928;2023-04-01T02:29:40;98793.75;;;11.19
75273;BMP280;63869;52.344;16.928;2023-04-01T02:32:07;98791.81;;;11.20
75273;BMP280;63869;52.344;16.928;2023-04-01T02:34:33;98784.66;;;11.17
75273;BMP280;63869;52.344;16.928;2023-04-01T02:37:00;98781.97;;;11.17
75273;BMP280;63869;52.344;16.928;2023-04-01T02:39:25;98787.31;;;11.17
75273;BMP280;63869;52.344;16.928;2023-04-01T02:41:52;98790.00;;;11.17
75273;BMP280;63869;52.344;16.928;2023-04-01T02:44:17;98789.28;;;11.16
75273;BMP280;63869;52.344;16.928;2023-04-01T02:46:42;98794.63;;;11.16
75273;BMP280;63869;52.344;16.928;2023-04-01T02:49:08;98802.19;;;11.18
75273;BMP280;63869;52.344;16.928;2023-04-01T02:51:34;98803.66;;;11.19
75273;BMP280;63869;52.344;16.928;2023-04-01T02:53:59;98804.44;;;11.19
75273;BMP280;63869;52.344;16.928;2023-04-01T02:56:25;98801.75;;;11.19
75273;BMP280;63869;52.344;16.928;2023-04-01T02:58:52;98803.25;;;11.20
75273;BMP280;63869;52.344;16.928;2023-04-01T03:01:17;98807.41;;;11.21
75273;BMP280;63869;52.344;16.928;2023-04-01T03:03:43;98809.34;;;11.21
75273;BMP280;63869;52.344;16.928;2023-04-01T03:06:10;98806.66;;;11.21
75273;BMP280;63869;52.344;16.928;2023-04-01T03:08:36;98812.00;;;11.21
75273;BMP280;63869;52.344;16.928;2023-04-01T03:11:01;98808.88;;;11.22
75273;BMP280;63869;52.344;16.928;2023-04-01T03:13:27;98806.22;;;11.22
75273;BMP280;63869;52.344;16.928;2023-04-01T03:15:52;98806.94;;;11.23
75273;BMP280;63869;52.344;16.928;2023-04-01T03:18:18;98801.16;;;11.24
75273;BMP280;63869;52.344;16.928;2023-04-01T03:20:44;98805.75;;;11.24
75273;BMP280;63869;52.344;16.928;2023-04-01T03:23:09;98808.69;;;11.26
75273;BMP280;63869;52.344;16.928;2023-04-01T03:25:34;98803.34;;;11.26
75273;BMP280;63869;52.344;16.928;2023-04-01T03:28:00;98801.16;;;11.24
75273;BMP280;63869;52.344;16.928;2023-04-01T03:30:27;98799.66;;;11.23
75273;BMP280;63869;52.344;16.928;2023-04-01T03:32:55;98803.81;;;11.24
75273;BMP280;63869;52.344;16.928;2023-04-01T03:35:20;98803.81;;;11.24
75273;BMP280;63869;52.344;16.928;2023-04-01T03:37:46;98807.94;;;11.25
75273;BMP280;63869;52.344;16.928;2023-04-01T03:40:11;98801.16;;;11.24
75273;BMP280;63869;52.344;16.928;2023-04-01T03:42:37;98798.47;;;11.24
75273;BMP280;63869;52.344;16.928;2023-04-01T03:45:03;98807.22;;;11.25
75273;BMP280;63869;52.344;16.928;2023-04-01T03:47:29;98813.31;;;11.25
75273;BMP280;63869;52.344;16.928;2023-04-01T03:49:54;98811.09;;;11.24
75273;BMP280;63869;52.344;16.928;2023-04-01T03:52:20;98808.13;;;11.22
75273;BMP280;63869;52.344;16.928;2023-04-01T03:54:45;98815.97;;;11.25
75273;BMP280;63869;52.344;16.928;2023-04-01T03:57:11;98817.19;;;11.24
75273;BMP280;63869;52.344;16.928;2023-04-01T03:59:36;98822.53;;;11.24
75273;BMP280;63869;52.344;16.928;2023-04-01T04:02:01;98817.91;;;11.25
75273;BMP280;63869;52.344;16.928;2023-04-01T04:04:27;98817.91;;;11.25
75273;BMP280;63869;52.344;16.928;2023-04-01T04:06:53;98824.94;;;11.22
75273;BMP280;63869;52.344;16.928;2023-04-01T04:09:18;98819.88;;;11.24
75273;BMP280;63869;52.344;16.928;2023-04-01T04:11:44;98830.09;;;11.26
75273;BMP280;63869;52.344;16.928;2023-04-01T04:14:09;98834.69;;;11.25
75273;BMP280;63869;52.344;16.928;2023-04-01T04:16:35;98834.69;;;11.25
75273;BMP280;63869;52.344;16.928;2023-04-01T04:19:02;98840.06;;;11.25
75273;BMP280;63869;52.344;16.928;2023-04-01T04:21:28;98835.63;;;11.22
75273;BMP280;63869;52.344;16.928;2023-04-01T04:23:53;98843.19;;;11.24
75273;BMP280;63869;52.344;16.928;2023-04-01T04:26:19;98840.97;;;11.22
75273;BMP280;63869;52.344;16.928;2023-04-01T04:28:44;98840.97;;;11.22
75273;BMP280;63869;52.344;16.928;2023-04-01T04:31:10;98841.72;;;11.23
75273;BMP280;63869;52.344;16.928;2023-04-01T04:33:36;98847.81;;;11.23
75273;BMP280;63869;52.344;16.928;2023-04-01T04:36:03;98855.84;;;11.23
75273;BMP280;63869;52.344;16.928;2023-04-01T04:38:29;98849.00;;;11.22
75273;BMP280;63869;52.344;16.928;2023-04-01T04:40:56;98850.50;;;11.23
75273;BMP280;63869;52.344;16.928;2023-04-01T04:43:21;98853.91;;;11.24
75273;BMP280;63869;52.344;16.928;2023-04-01T04:45:47;98850.75;;;11.25
75273;BMP280;63869;52.344;16.928;2023-04-01T04:48:14;98853.16;;;11.23
75273;BMP280;63869;52.344;16.928;2023-04-01T04:50:43;98858.03;;;11.25
75273;BMP280;63869;52.344;16.928;2023-04-01T04:53:12;98859.25;;;11.24
75273;BMP280;63869;52.344;16.928;2023-04-01T04:55:42;98860.00;;;11.24
75273;BMP280;63869;52.344;16.928;2023-04-01T04:58:08;98868.47;;;11.23
75273;BMP280;63869;52.344;16.928;2023-04-01T05:00:33;98870.41;;;11.22
75273;BMP280;63869;52.344;16.928;2023-04-01T05:02:58;98867.72;;;11.22
75273;BMP280;63869;52.344;16.928;2023-04-01T05:05:24;98863.28;;;11.19
75273;BMP280;63869;52.344;16.928;2023-04-01T05:07:49;98880.06;;;11.20
75273;BMP280;63869;52.344;16.928;2023-04-01T05:10:14;98872.34;;;11.22
75273;BMP280;63869;52.344;16.928;2023-04-01T05:12:40;98883.16;;;11.18
75273;BMP280;63869;52.344;16.928;2023-04-01T05:15:06;98872.69;;;10.96
75273;BMP280;63869;52.344;16.928;2023-04-01T05:17:31;98874.50;;;10.81
75273;BMP280;63869;52.344;16.928;2023-04-01T05:19:57;98881.66;;;10.66
75273;BMP280;63869;52.344;16.928;2023-04-01T05:22:23;98871.41;;;10.55
75273;BMP280;63869;52.344;16.928;2023-04-01T05:24:48;98872.94;;;10.47
75273;BMP280;63869;52.344;16.928;2023-04-01T05:27:14;98875.91;;;10.49
75273;BMP280;63869;52.344;16.928;2023-04-01T05:29:39;98883.63;;;10.47
75273;BMP280;63869;52.344;16.928;2023-04-01T05:32:05;98890.75;;;10.41
75273;BMP280;63869;52.344;16.928;2023-04-01T05:34:30;98879.75;;;10.39
75273;BMP280;63869;52.344;16.928;2023-04-01T05:36:55;98884.03;;;10.36
75273;BMP280;63869;52.344;16.928;2023-04-01T05:39:21;98884.22;;;10.42
75273;BMP280;63869;52.344;16.928;2023-04-01T05:41:46;98878.88;;;10.42
75273;BMP280;63869;52.344;16.928;2023-04-01T05:44:11;98884.97;;;10.43
75273;BMP280;63869;52.344;16.928;2023-04-01T05:46:38;98883.47;;;10.42
75273;BMP280;63869;52.344;16.928;2023-04-01T05:49:03;98886.91;;;10.42
75273;BMP280;63869;52.344;16.928;2023-04-01T05:51:28;98892.69;;;10.41
75273;BMP280;63869;52.344;16.928;2023-04-01T05:53:54;98890.44;;;10.39
75273;BMP280;63869;52.344;16.928;2023-04-01T05:56:19;98893.44;;;10.41
75273;BMP280;63869;52.344;16.928;2023-04-01T05:58:47;98889.56;;;10.42
75273;BMP280;63869;52.344;16.928;2023-04-01T06:01:15;98895.47;;;10.46
75273;BMP280;63869;52.344;16.928;2023-04-01T06:03:41;98897.88;;;10.44
75273;BMP280;63869;52.344;16.928;2023-04-01T06:06:13;98891.94;;;10.31
75273;BMP280;63869;52.344;16.928;2023-04-01T06:08:39;98891.06;;;10.25
75273;BMP280;63869;52.344;16.928;2023-04-01T06:14:16;98905.88;;;10.17
75273;BMP280;63869;52.344;16.928;2023-04-01T06:24:49;98915.81;;;10.16
75273;BMP280;63869;52.344;16.928;2023-04-01T06:27:40;98915.50;;;10.14
75273;BMP280;63869;52.344;16.928;2023-04-01T06:30:43;98922.19;;;10.19
75273;BMP280;63869;52.344;16.928;2023-04-01T06:35:54;98921.13;;;10.16
75273;BMP280;63869;52.344;16.928;2023-04-01T06:38:30;98928.97;;;10.20
75273;BMP280;63869;52.344;16.928;2023-04-01T06:41:28;98936.44;;;10.25
75273;BMP280;63869;52.344;16.928;2023-04-01T06:44:16;98931.25;;;10.30
75273;BMP280;63869;52.344;16.928;2023-04-01T06:47:00;98931.25;;;10.30
75273;BMP280;63869;52.344;16.928;2023-04-01T06:52:42;98937.19;;;10.34
75273;BMP280;63869;52.344;16.928;2023-04-01T06:57:53;98931.22;;;10.40
75273;BMP280;63869;52.344;16.928;2023-04-01T07:00:38;98935.28;;;10.44
75273;BMP280;63869;52.344;16.928;2023-04-01T07:03:14;98942.69;;;10.40
75273;BMP280;63869;52.344;16.928;2023-04-01T07:05:42;98941.50;;;10.41
75273;BMP280;63869;52.344;16.928;2023-04-01T07:08:20;98940.47;;;10.48
75273;BMP280;63869;52.344;16.928;2023-04-01T07:11:04;98946.84;;;10.41
75273;BMP280;63869;52.344;16.928;2023-04-01T07:13:52;98949.34;;;10.35
75273;BMP280;63869;52.344;16.928;2023-04-01T07:16:31;98950.25;;;10.32
75273;BMP280;63869;52.344;16.928;2023-04-01T07:19:24;98958.84;;;10.27
75273;BMP280;63869;52.344;16.928;2023-04-01T07:22:04;98953.50;;;10.27
75273;BMP280;63869;52.344;16.928;2023-04-01T07:24:34;98963.44;;;10.27
75273;BMP280;63869;52.344;16.928;2023-04-01T07:27:01;98959.88;;;10.30
75273;BMP280;63869;52.344;16.928;2023-04-01T07:29:26;98965.06;;;10.24
75273;BMP280;63869;52.344;16.928;2023-04-01T07:37:13;98967.56;;;10.10
75273;BMP280;63869;52.344;16.928;2023-04-01T07:39:50;98976.00;;;10.08
75273;BMP280;63869;52.344;16.928;2023-04-01T07:42:31;98973.47;;;10.05
75273;BMP280;63869;52.344;16.928;2023-04-01T07:50:31;98984.00;;;10.08
75273;BMP280;63869;52.344;16.928;2023-04-01T07:58:09;98990.25;;;10.23
75273;BMP280;63869;52.344;16.928;2023-04-01T08:05:55;98997.59;;;10.50
75273;BMP280;63869;52.344;16.928;2023-04-01T08:08:36;99007.56;;;10.68
75273;BMP280;63869;52.344;16.928;2023-04-01T08:11:10;99010.69;;;10.85
75273;BMP280;63869;52.344;16.928;2023-04-01T08:16:10;99016.94;;;11.00
75273;BMP280;63869;52.344;16.928;2023-04-01T08:21:05;99019.25;;;11.25
75273;BMP280;63869;52.344;16.928;2023-04-01T08:23:37;99018.66;;;11.39
75273;BMP280;63869;52.344;16.928;2023-04-01T08:28:41;99024.81;;;11.64
75273;BMP280;63869;52.344;16.928;2023-04-01T08:31:13;99025.53;;;11.73
75273;BMP280;63869;52.344;16.928;2023-04-01T08:33:42;99024.34;;;11.84
75273;BMP280;63869;52.344;16.928;2023-04-01T08:36:10;99023.34;;;11.96
75273;BMP280;63869;52.344;16.928;2023-04-01T08:38:51;99028.50;;;12.08
75273;BMP280;63869;52.344;16.928;2023-04-01T08:54:21;99044.56;;;12.18
75273;BMP280;63869;52.344;16.928;2023-04-01T09:07:15;99058.81;;;11.21
75273;BMP280;63869;52.344;16.928;2023-04-01T09:20:20;99060.66;;;11.75
75273;BMP280;63869;52.344;16.928;2023-04-01T09:30:33;99085.09;;;12.01
75273;BMP280;63869;52.344;16.928;2023-04-01T09:38:16;99093.44;;;12.03
75273;BMP280;63869;52.344;16.928;2023-04-01T09:58:40;99122.84;;;12.12
75273;BMP280;63869;52.344;16.928;2023-04-01T10:01:27;99123.50;;;11.98
75273;BMP280;63869;52.344;16.928;2023-04-01T10:06:46;99133.94;;;11.87
75273;BMP280;63869;52.344;16.928;2023-04-01T10:20:17;99139.22;;;11.54
75273;BMP280;63869;52.344;16.928;2023-04-01T10:25:34;99149.19;;;11.35
75273;BMP280;63869;52.344;16.928;2023-04-01T10:51:59;99179.38;;;11.54
75273;BMP280;63869;52.344;16.928;2023-04-01T10:54:36;99174.88;;;11.60
75273;BMP280;63869;52.344;16.928;2023-04-01T11:22:38;99192.41;;;11.25
75273;BMP280;63869;52.344;16.928;2023-04-01T11:43:22;99218.72;;;11.26
75273;BMP280;63869;52.344;16.928;2023-04-01T11:45:50;99218.28;;;11.28
75273;BMP280;63869;52.344;16.928;2023-04-01T11:48:23;99228.53;;;11.20
75273;BMP280;63869;52.344;16.928;2023-04-01T11:51:04;99226.72;;;11.08
75273;BMP280;63869;52.344;16.928;2023-04-01T11:59:03;99234.69;;;10.99
75273;BMP280;63869;52.344;16.928;2023-04-01T12:01:39;99240.97;;;11.05
75273;BMP280;63869;52.344;16.928;2023-04-01T12:04:17;99250.97;;;11.23
75273;BMP280;63869;52.344;16.928;2023-04-01T12:06:49;99246.25;;;11.36
75273;BMP280;63869;52.344;16.928;2023-04-01T12:11:48;99253.09;;;11.55
75273;BMP280;63869;52.344;16.928;2023-04-01T12:14:27;99251.47;;;11.76
75273;BMP280;63869;52.344;16.928;2023-04-01T12:22:21;99259.78;;;12.05
75273;BMP280;63869;52.344;16.928;2023-04-01T12:24:53;99265.59;;;11.86
75273;BMP280;63869;52.344;16.928;2023-04-01T12:30:32;99259.13;;;11.19
75273;BMP280;63869;52.344;16.928;2023-04-01T12:33:26;99271.44;;;11.08
75273;BMP280;63869;52.344;16.928;2023-04-01T12:44:46;99283.44;;;10.41
75273;BMP280;63869;52.344;16.928;2023-04-01T12:53:11;99299.06;;;10.30
75273;BMP280;63869;52.344;16.928;2023-04-01T12:55:43;99306.53;;;10.35
75273;BMP280;63869;52.344;16.928;2023-04-01T13:01:13;99311.66;;;10.42
75273;BMP280;63869;52.344;16.928;2023-04-01T13:14:35;99321.16;;;10.43
75273;BMP280;63869;52.344;16.928;2023-04-01T13:25:39;99330.88;;;10.81
75273;BMP280;63869;52.344;16.928;2023-04-01T13:28:16;99328.63;;;10.79
75273;BMP280;63869;52.344;16.928;2023-04-01T13:31:02;99331.63;;;10.81
75273;BMP280;63869;52.344;16.928;2023-04-01T13:33:45;99332.13;;;10.89
75273;BMP280;63869;52.344;16.928;2023-04-01T13:39:29;99334.38;;;10.68
75273;BMP280;63869;52.344;16.928;2023-04-01T13:42:25;99348.38;;;10.73
75273;BMP280;63869;52.344;16.928;2023-04-01T13:44:56;99340.69;;;10.84
75273;BMP280;63869;52.344;16.928;2023-04-01T13:58:36;99353.47;;;11.51
75273;BMP280;63869;52.344;16.928;2023-04-01T14:01:23;99347.03;;;11.48
75273;BMP280;63869;52.344;16.928;2023-04-01T14:04:15;99351.69;;;11.57
75273;BMP280;63869;52.344;16.928;2023-04-01T14:06:54;99358.63;;;11.36
75273;BMP280;63869;52.344;16.928;2023-04-01T14:12:30;99369.16;;;11.30
75273;BMP280;63869;52.344;16.928;2023-04-01T14:34:52;99380.56;;;10.91
75273;BMP280;63869;52.344;16.928;2023-04-01T14:37:23;99387.69;;;10.94
75273;BMP280;63869;52.344;16.928;2023-04-01T14:40:19;99391.06;;;10.85
75273;BMP280;63869;52.344;16.928;2023-04-01T14:45:44;99403.53;;;10.66
75273;BMP280;63869;52.344;16.928;2023-04-01T14:48:31;99411.81;;;10.59
75273;BMP280;63869;52.344;16.928;2023-04-01T14:54:16;99410.38;;;10.67
75273;BMP280;63869;52.344;16.928;2023-04-01T14:56:50;99409.84;;;10.73
75273;BMP280;63869;52.344;16.928;2023-04-01T15:08:03;99424.44;;;10.81
75273;BMP280;63869;52.344;16.928;2023-04-01T15:24:23;99445.22;;;10.98
75273;BMP280;63869;52.344;16.928;2023-04-01T15:48:24;99472.13;;;10.48
75273;BMP280;63869;52.344;16.928;2023-04-01T15:56:23;99484.88;;;10.44
75273;BMP280;63869;52.344;16.928;2023-04-01T16:04:28;99496.44;;;10.41
75273;BMP280;63869;52.344;16.928;2023-04-01T16:07:16;99495.75;;;10.36
75273;BMP280;63869;52.344;16.928;2023-04-01T16:12:38;99497.63;;;10.27
75273;BMP280;63869;52.344;16.928;2023-04-01T16:15:34;99510.75;;;10.21
75273;BMP280;63869;52.344;16.928;2023-04-01T16:26:53;99519.81;;;9.73
75273;BMP280;63869;52.344;16.928;2023-04-01T16:29:28;99527.72;;;9.64
75273;BMP280;63869;52.344;16.928;2023-04-01T16:37:47;99535.91;;;9.70
75273;BMP280;63869;52.344;16.928;2023-04-01T16:45:23;99552.50;;;9.36
75273;BMP280;63869;52.344;16.928;2023-04-01T16:47:51;99554.41;;;9.35
75273;BMP280;63869;52.344;16.928;2023-04-01T16:50:19;99568.66;;;9.28
75273;BMP280;63869;52.344;16.928;2023-04-01T16:52:57;99570.03;;;9.20
75273;BMP280;63869;52.344;16.928;2023-04-01T16:55:35;99571.88;;;9.07
75273;BMP280;63869;52.344;16.928;2023-04-01T16:58:07;99579.16;;;8.90
75273;BMP280;63869;52.344;16.928;2023-04-01T17:00:47;99582.47;;;8.78
75273;BMP280;63869;52.344;16.928;2023-04-01T17:03:27;99591.53;;;8.64
75273;BMP280;63869;52.344;16.928;2023-04-01T17:06:03;99593.38;;;8.51
75273;BMP280;63869;52.344;16.928;2023-04-01T17:11:19;99606.63;;;8.35
75273;BMP280;63869;52.344;16.928;2023-04-01T17:16:24;99611.50;;;8.40
75273;BMP280;63869;52.344;16.928;2023-04-01T17:19:00;99610.66;;;8.43
75273;BMP280;63869;52.344;16.928;2023-04-01T17:21:45;99611.19;;;8.35
75273;BMP280;63869;52.344;16.928;2023-04-01T17:32:14;99618.78;;;8.20
75273;BMP280;63869;52.344;16.928;2023-04-01T17:34:52;99620.38;;;8.14
75273;BMP280;63869;52.344;16.928;2023-04-01T17:37:28;99627.72;;;8.10
75273;BMP280;63869;52.344;16.928;2023-04-01T17:40:11;99629.53;;;8.13
75273;BMP280;63869;52.344;16.928;2023-04-01T17:42:41;99633.44;;;8.08
75273;BMP280;63869;52.344;16.928;2023-04-01T17:45:24;99647.09;;;8.10
75273;BMP280;63869;52.344;16.928;2023-04-01T17:48:01;99649.31;;;8.12
75273;BMP280;63869;52.344;16.928;2023-04-01T17:50:33;99651.66;;;8.10
75273;BMP280;63869;52.344;16.928;2023-04-01T17:53:03;99659.72;;;8.06
75273;BMP280;63869;52.344;16.928;2023-04-01T17:58:19;99668.44;;;8.07
75273;BMP280;63869;52.344;16.928;2023-04-01T18:06:17;99671.25;;;8.00
75273;BMP280;63869;52.344;16.928;2023-04-01T18:09:02;99674.38;;;7.94
75273;BMP280;63869;52.344;16.928;2023-04-01T18:16:30;99688.00;;;7.77
75273;BMP280;63869;52.344;16.928;2023-04-01T18:24:11;99705.47;;;7.54
75273;BMP280;63869;52.344;16.928;2023-04-01T18:26:40;99704.13;;;7.43
75273;BMP280;63869;52.344;16.928;2023-04-01T18:29:17;99708.38;;;7.37
75273;BMP280;63869;52.344;16.928;2023-04-01T18:31:49;99717.59;;;7.32
75273;BMP280;63869;52.344;16.928;2023-04-01T18:34:18;99720.72;;;7.23
75273;BMP280;63869;52.344;16.928;2023-04-01T18:39:18;99734.91;;;7.44
75273;BMP280;63869;52.344;16.928;2023-04-01T18:44:42;99746.44;;;7.80
75273;BMP280;63869;52.344;16.928;2023-04-01T18:50:05;99748.25;;;8.10
75273;BMP280;63869;52.344;16.928;2023-04-01T18:52:39;99758.34;;;8.19
75273;BMP280;63869;52.344;16.928;2023-04-01T18:55:29;99761.56;;;8.30
75273;BMP280;63869;52.344;16.928;2023-04-01T18:58:11;99773.94;;;8.40
75273;BMP280;63869;52.344;16.928;2023-04-01T19:00:46;99773.84;;;8.44
75273;BMP280;63869;52.344;16.928;2023-04-01T19:03:28;99777.94;;;8.52
75273;BMP280;63869;52.344;16.928;2023-04-01T19:05:59;99777.81;;;8.55
75273;BMP280;63869;52.344;16.928;2023-04-01T19:08:34;99783.84;;;8.59
75273;BMP280;63869;52.344;16.928;2023-04-01T19:11:25;99784.94;;;8.62
75273;BMP280;63869;52.344;16.928;2023-04-01T19:25:27;99804.22;;;8.70
75273;BMP280;63869;52.344;16.928;2023-04-01T19:28:16;99805.72;;;8.71
75273;BMP280;63869;52.344;16.928;2023-04-01T19:33:46;99806.47;;;8.71
75273;BMP280;63869;52.344;16.928;2023-04-01T19:36:32;99820.84;;;8.74
75273;BMP280;63869;52.344;16.928;2023-04-01T19:42:43;99836.84;;;8.74
75273;BMP280;63869;52.344;16.928;2023-04-01T19:45:29;99833.44;;;8.73
75273;BMP280;63869;52.344;16.928;2023-04-01T19:50:55;99833.13;;;8.71
75273;BMP280;63869;52.344;16.928;2023-04-01T19:53:54;99840.75;;;8.69
75273;BMP280;63869;52.344;16.928;2023-04-01T19:56:19;99840.00;;;8.69
75273;BMP280;63869;52.344;16.928;2023-04-01T20:01:35;99851.47;;;8.66
75273;BMP280;63869;52.344;16.928;2023-04-01T20:04:08;99860.19;;;8.66
75273;BMP280;63869;52.344;16.928;2023-04-01T20:07:05;99866.69;;;8.65
75273;BMP280;63869;52.344;16.928;2023-04-01T20:13:13;99880.41;;;8.63
75273;BMP280;63869;52.344;16.928;2023-04-01T20:15:44;99887.34;;;8.61
75273;BMP280;63869;52.344;16.928;2023-04-01T20:18:18;99894.56;;;8.60
75273;BMP280;63869;52.344;16.928;2023-04-01T20:20:57;99895.72;;;8.59
75273;BMP280;63869;52.344;16.928;2023-04-01T20:23:43;99897.31;;;8.57
75273;BMP280;63869;52.344;16.928;2023-04-01T20:26:10;99904.88;;;8.58
75273;BMP280;63869;52.344;16.928;2023-04-01T20:31:23;99911.03;;;8.55
75273;BMP280;63869;52.344;16.928;2023-04-01T20:42:29;99931.59;;;8.55
75273;BMP280;63869;52.344;16.928;2023-04-01T20:45:08;99932.75;;;8.54
75273;BMP280;63869;52.344;16.928;2023-04-01T20:50:23;99939.97;;;8.53
75273;BMP280;63869;52.344;16.928;2023-04-01T20:52:57;99934.66;;;8.53
75273;BMP280;63869;52.344;16.928;2023-04-01T20:55:58;99936.25;;;8.47
75273;BMP280;63869;52.344;16.928;2023-04-01T21:01:38;99937.44;;;8.46
75273;BMP280;63869;52.344;16.928;2023-04-01T21:09:37;99946.91;;;8.47
75273;BMP280;63869;52.344;16.928;2023-04-01T21:25:35;99973.56;;;8.47
75273;BMP280;63869;52.344;16.928;2023-04-01T21:28:08;99972.06;;;8.46
75273;BMP280;63869;52.344;16.928;2023-04-01T21:38:38;99990.28;;;8.48
75273;BMP280;63869;52.344;16.928;2023-04-01T21:46:58;99996.38;;;8.48
75273;BMP280;63869;52.344;16.928;2023-04-01T22:03:46;100021.97;;;8.42
75273;BMP280;63869;52.344;16.928;2023-04-01T22:06:40;100030.78;;;8.39
75273;BMP280;63869;52.344;16.928;2023-04-01T22:09:18;100019.78;;;8.37
75273;BMP280;63869;52.344;16.928;2023-04-01T22:17:40;100033.19;;;8.30
75273;BMP280;63869;52.344;16.928;2023-04-01T22:20:14;100042.72;;;8.27
75273;BMP280;63869;52.344;16.928;2023-04-01T22:28:24;100052.34;;;8.21
75273;BMP280;63869;52.344;16.928;2023-04-01T22:30:59;100056.53;;;8.19
75273;BMP280;63869;52.344;16.928;2023-04-01T22:33:37;100064.16;;;8.17
75273;BMP280;63869;52.344;16.928;2023-04-01T22:39:04;100060.03;;;8.12
75273;BMP280;63869;52.344;16.928;2023-04-01T22:44:34;100073.06;;;8.07
75273;BMP280;63869;52.344;16.928;2023-04-01T22:47:33;100080.69;;;8.05
75273;BMP280;63869;52.344;16.928;2023-04-01T22:50:20;100079.53;;;8.02
75273;BMP280;63869;52.344;16.928;2023-04-01T22:52:50;100076.19;;;7.98
75273;BMP280;63869;52.344;16.928;2023-04-01T22:55:23;100088.34;;;7.99
75273;BMP280;63869;52.344;16.928;2023-04-01T23:00:43;100095.94;;;8.01
75273;BMP280;63869;52.344;16.928;2023-04-01T23:03:22;100087.59;;;7.99
75273;BMP280;63869;52.344;16.928;2023-04-01T23:05:57;100106.59;;;8.01
75273;BMP280;63869;52.344;16.928;2023-04-01T23:16:49;100112.72;;;7.94
75273;BMP280;63869;52.344;16.928;2023-04-01T23:24:41;100119.28;;;7.89
75273;BMP280;63869;52.344;16.928;2023-04-01T23:29:50;100129.16;;;7.89
75273;BMP280;63869;52.344;16.928;2023-04-01T23:32:23;100117.38;;;7.86
75273;BMP280;63869;52.344;16.928;2023-04-01T23:34:51;100136.38;;;7.88
75273;BMP280;63869;52.344;16.928;2023-04-01T23:37:18;100137.91;;;7.86
75273;BMP280;63869;52.344;16.928;2023-04-01T23:39:52;100144.03;;;7.83
75273;BMP280;63869;52.344;16.928;2023-04-01T23:42:25;100139.44;;;7.83
75273;BMP280;63869;52.344;16.928;2023-04-01T23:44:54;100139.44;;;7.83
75273;BMP280;63869;52.344;16.928;2023-04-01T23:47:23;100145.56;;;7.80